sensor_id;sensor_type;location;lat;lon;timestamp;pressure;altitude;pressure_sealevel;temperature;humidity
9462;BME280;4769;42.660;23.262;2023-05-03T00:00:23;94221.19;;;13.80;49.65
9462;BME280;4769;42.660;23.262;2023-05-03T00:02:52;94233.94;;;13.83;49.67
9462;BME280;4769;42.660;23.262;2023-05-03T00:05:18;94232.88;;;13.84;49.34
9462;BME280;4769;42.660;23.262;2023-05-03T00:07:44;94230.88;;;13.59;49.35
9462;BME280;4769;42.660;23.262;2023-05-03T00:10:10;94239.19;;;13.73;48.93
9462;BME280;4769;42.660;23.262;2023-05-03T00:12:37;94232.19;;;13.57;48.93
9462;BME280;4769;42.660;23.262;2023-05-03T00:15:04;94234.91;;;13.62;49.05
9462;BME280;4769;42.660;23.262;2023-05-03T00:17:30;94239.66;;;13.65;49.21
9462;BME280;4769;42.660;23.262;2023-05-03T00:19:59;94245.75;;;13.60;49.10
9462;BME280;4769;42.660;23.262;2023-05-03T00:22:25;94247.38;;;13.66;48.56
9462;BME280;4769;42.660;23.262;2023-05-03T00:24:50;94248.72;;;13.74;48.44
9462;BME280;4769;42.660;23.262;2023-05-03T00:27:16;94257.75;;;13.73;48.30
9462;BME280;4769;42.660;23.262;2023-05-03T00:29:42;94264.28;;;13.60;48.59
9462;BME280;4769;42.660;23.262;2023-05-03T00:32:08;94261.13;;;13.63;48.26
9462;BME280;4769;42.660;23.262;2023-05-03T00:34:33;94267.63;;;13.46;48.72
9462;BME280;4769;42.660;23.262;2023-05-03T00:37:02;94268.78;;;13.60;48.33
9462;BME280;4769;42.660;23.262;2023-05-03T00:39:28;94262.72;;;13.64;48.20
9462;BME280;4769;42.660;23.262;2023-05-03T00:41:55;94258.75;;;13.62;48.74
9462;BME280;4769;42.660;23.262;2023-05-03T00:44:21;94269.41;;;13.72;48.65
9462;BME280;4769;42.660;23.262;2023-05-03T00:46:47;94271.72;;;13.63;48.80
9462;BME280;4769;42.660;23.262;2023-05-03T00:49:13;94274.91;;;13.65;48.85
9462;BME280;4769;42.660;23.262;2023-05-03T00:51:39;94269.38;;;13.67;48.83
9462;BME280;4769;42.660;23.262;2023-05-03T00:54:09;94277.66;;;13.80;48.72
9462;BME280;4769;42.660;23.262;2023-05-03T00:56:36;94268.94;;;13.85;48.34
9462;BME280;4769;42.660;23.262;2023-05-03T00:59:04;94271.53;;;13.75;48.21
9462;BME280;4769;42.660;23.262;2023-05-03T01:01:30;94272.56;;;13.69;48.03
9462;BME280;4769;42.660;23.262;2023-05-03T01:03:56;94264.34;;;13.34;48.85
9462;BME280;4769;42.660;23.262;2023-05-03T01:06:29;94265.72;;;13.36;48.39
9462;BME280;4769;42.660;23.262;2023-05-03T01:09:00;94260.59;;;13.25;48.60
9462;BME280;4769;42.660;23.262;2023-05-03T01:11:40;94259.31;;;13.32;48.02
9462;BME280;4769;42.660;23.262;2023-05-03T01:14:13;94247.16;;;13.05;48.95
9462;BME280;4769;42.660;23.262;2023-05-03T01:16:46;94252.97;;;13.33;48.43
9462;BME280;4769;42.660;23.262;2023-05-03T01:19:25;94253.25;;;13.37;48.53
9462;BME280;4769;42.660;23.262;2023-05-03T01:22:02;94250.88;;;13.40;48.17
9462;BME280;4769;42.660;23.262;2023-05-03T01:24:35;94250.28;;;13.28;48.31
9462;BME280;4769;42.660;23.262;2023-05-03T01:27:05;94248.81;;;13.11;48.99
9462;BME280;4769;42.660;23.262;2023-05-03T01:29:31;94244.59;;;13.15;49.04
9462;BME280;4769;42.660;23.262;2023-05-03T01:31:59;94252.00;;;13.13;48.79
9462;BME280;4769;42.660;23.262;2023-05-03T01:34:31;94245.94;;;13.17;49.31
9462;BME280;4769;42.660;23.262;2023-05-03T01:36:59;94248.00;;;13.10;48.81
9462;BME280;4769;42.660;23.262;2023-05-03T01:39:32;94245.81;;;13.02;49.35
9462;BME280;4769;42.660;23.262;2023-05-03T01:42:01;94234.38;;;13.28;48.71
9462;BME280;4769;42.660;23.262;2023-05-03T01:44:31;94235.97;;;13.29;48.81
9462;BME280;4769;42.660;23.262;2023-05-03T01:46:58;94231.69;;;13.23;48.47
9462;BME280;4769;42.660;23.262;2023-05-03T01:49:24;94230.00;;;13.12;48.69
9462;BME280;4769;42.660;23.262;2023-05-03T01:51:50;94217.16;;;12.94;48.93
9462;BME280;4769;42.660;23.262;2023-05-03T01:54:16;94211.91;;;12.99;48.88
9462;BME280;4769;42.660;23.262;2023-05-03T01:56:41;94213.28;;;13.02;48.88
9462;BME280;4769;42.660;23.262;2023-05-03T01:59:07;94207.13;;;12.96;49.25
9462;BME280;4769;42.660;23.262;2023-05-03T02:01:35;94208.09;;;12.90;49.27
9462;BME280;4769;42.660;23.262;2023-05-03T02:04:01;94206.41;;;12.79;49.64
9462;BME280;4769;42.660;23.262;2023-05-03T02:06:27;94204.53;;;12.75;50.10
9462;BME280;4769;42.660;23.262;2023-05-03T02:08:52;94196.53;;;12.70;49.98
9462;BME280;4769;42.660;23.262;2023-05-03T02:11:18;94191.88;;;12.82;49.75
9462;BME280;4769;42.660;23.262;2023-05-03T02:13:44;94189.81;;;12.89;49.87
9462;BME280;4769;42.660;23.262;2023-05-03T02:16:10;94185.84;;;12.86;49.66
9462;BME280;4769;42.660;23.262;2023-05-03T02:18:38;94185.06;;;12.91;49.75
9462;BME280;4769;42.660;23.262;2023-05-03T02:21:04;94178.22;;;12.95;49.89
9462;BME280;4769;42.660;23.262;2023-05-03T02:23:30;94182.06;;;13.09;49.75
9462;BME280;4769;42.660;23.262;2023-05-03T02:25:56;94187.69;;;13.17;49.69
9462;BME280;4769;42.660;23.262;2023-05-03T02:28:22;94197.47;;;13.12;49.62
9462;BME280;4769;42.660;23.262;2023-05-03T02:30:47;94183.97;;;13.13;49.62
9462;BME280;4769;42.660;23.262;2023-05-03T02:33:13;94189.53;;;13.12;49.78
9462;BME280;4769;42.660;23.262;2023-05-03T02:35:41;94195.88;;;13.11;50.05
9462;BME280;4769;42.660;23.262;2023-05-03T02:38:07;94197.09;;;13.35;49.92
9462;BME280;4769;42.660;23.262;2023-05-03T02:40:33;94199.22;;;13.38;49.63
9462;BME280;4769;42.660;23.262;2023-05-03T02:42:59;94210.44;;;13.50;49.21
9462;BME280;4769;42.660;23.262;2023-05-03T02:45:24;94205.63;;;13.47;48.62
9462;BME280;4769;42.660;23.262;2023-05-03T02:47:50;94209.84;;;13.43;48.67
9462;BME280;4769;42.660;23.262;2023-05-03T02:50:16;94201.38;;;13.41;48.82
9462;BME280;4769;42.660;23.262;2023-05-03T02:52:44;94195.25;;;13.40;48.77
9462;BME280;4769;42.660;23.262;2023-05-03T02:55:10;94194.00;;;13.48;48.60
9462;BME280;4769;42.660;23.262;2023-05-03T02:57:36;94192.94;;;13.44;48.63
9462;BME280;4769;42.660;23.262;2023-05-03T03:00:02;94187.03;;;13.37;48.87
9462;BME280;4769;42.660;23.262;2023-05-03T03:02:27;94196.31;;;13.39;48.95
9462;BME280;4769;42.660;23.262;2023-05-03T03:04:53;94204.97;;;13.25;49.71
9462;BME280;4769;42.660;23.262;2023-05-03T03:07:19;94217.34;;;13.14;49.97
9462;BME280;4769;42.660;23.262;2023-05-03T03:09:47;94207.53;;;13.15;50.34
9462;BME280;4769;42.660;23.262;2023-05-03T03:12:13;94213.91;;;13.19;50.46
9462;BME280;4769;42.660;23.262;2023-05-03T03:14:39;94203.97;;;13.36;50.45
9462;BME280;4769;42.660;23.262;2023-05-03T03:17:07;94213.69;;;13.25;50.93
9462;BME280;4769;42.660;23.262;2023-05-03T03:19:33;94208.16;;;13.27;50.46
9462;BME280;4769;42.660;23.262;2023-05-03T03:21:58;94225.13;;;13.31;50.48
9462;BME280;4769;42.660;23.262;2023-05-03T03:24:24;94231.78;;;13.33;50.26
9462;BME280;4769;42.660;23.262;2023-05-03T03:26:52;94210.03;;;13.31;49.78
9462;BME280;4769;42.660;23.262;2023-05-03T03:29:18;94223.34;;;13.36;49.84
9462;BME280;4769;42.660;23.262;2023-05-03T03:31:44;94226.75;;;13.37;49.52
9462;BME280;4769;42.660;23.262;2023-05-03T03:34:11;94235.81;;;13.41;49.47
9462;BME280;4769;42.660;23.262;2023-05-03T03:36:37;94235.84;;;13.46;49.15
9462;BME280;4769;42.660;23.262;2023-05-03T03:39:03;94253.28;;;13.42;49.30
9462;BME280;4769;42.660;23.262;2023-05-03T03:41:28;94245.91;;;13.44;49.37
9462;BME280;4769;42.660;23.262;2023-05-03T03:43:57;94240.63;;;13.49;49.50
9462;BME280;4769;42.660;23.262;2023-05-03T03:46:23;94236.97;;;13.55;49.30
9462;BME280;4769;42.660;23.262;2023-05-03T03:48:49;94237.78;;;13.60;49.24
9462;BME280;4769;42.660;23.262;2023-05-03T03:51:15;94234.41;;;13.70;49.11
9462;BME280;4769;42.660;23.262;2023-05-03T03:53:40;94237.25;;;13.63;48.87
9462;BME280;4769;42.660;23.262;2023-05-03T03:56:07;94238.44;;;13.41;49.48
9462;BME280;4769;42.660;23.262;2023-05-03T03:58:32;94255.41;;;13.40;50.02
9462;BME280;4769;42.660;23.262;2023-05-03T04:01:01;94260.16;;;13.43;50.54
9462;BME280;4769;42.660;23.262;2023-05-03T04:03:27;94263.13;;;13.46;51.32
9462;BME280;4769;42.660;23.262;2023-05-03T04:05:52;94261.28;;;13.52;51.31
9462;BME280;4769;42.660;23.262;2023-05-03T04:08:18;94262.31;;;13.46;51.60
9462;BME280;4769;42.660;23.262;2023-05-03T04:10:44;94267.22;;;13.64;51.46
9462;BME280;4769;42.660;23.262;2023-05-03T04:13:09;94247.88;;;13.63;50.73
9462;BME280;4769;42.660;23.262;2023-05-03T04:15:35;94252.63;;;14.08;54.88
9462;BME280;4769;42.660;23.262;2023-05-03T04:18:04;94250.56;;;13.73;49.83
9462;BME280;4769;42.660;23.262;2023-05-03T04:20:30;94259.50;;;13.57;50.46
9462;BME280;4769;42.660;23.262;2023-05-03T04:22:56;94272.16;;;13.19;51.16
9462;BME280;4769;42.660;23.262;2023-05-03T04:25:21;94278.13;;;13.36;50.58
9462;BME280;4769;42.660;23.262;2023-05-03T04:27:47;94288.56;;;13.47;50.76
9462;BME280;4769;42.660;23.262;2023-05-03T04:30:13;94283.72;;;13.39;50.65
9462;BME280;4769;42.660;23.262;2023-05-03T04:32:39;94290.75;;;13.55;50.54
9462;BME280;4769;42.660;23.262;2023-05-03T04:35:09;94293.72;;;13.64;49.76
9462;BME280;4769;42.660;23.262;2023-05-03T04:37:35;94296.59;;;13.57;50.68
9462;BME280;4769;42.660;23.262;2023-05-03T04:40:00;94309.97;;;13.41;55.06
9462;BME280;4769;42.660;23.262;2023-05-03T04:42:26;94308.44;;;13.86;51.45
9462;BME280;4769;42.660;23.262;2023-05-03T04:44:52;94311.66;;;13.88;50.87
9462;BME280;4769;42.660;23.262;2023-05-03T04:47:17;94314.72;;;13.75;50.28
9462;BME280;4769;42.660;23.262;2023-05-03T04:49:43;94314.16;;;13.73;50.09
9462;BME280;4769;42.660;23.262;2023-05-03T04:52:12;94317.84;;;13.67;49.98
9462;BME280;4769;42.660;23.262;2023-05-03T04:54:38;94324.06;;;13.46;50.43
9462;BME280;4769;42.660;23.262;2023-05-03T04:57:03;94323.84;;;13.53;50.02
9462;BME280;4769;42.660;23.262;2023-05-03T04:59:29;94322.88;;;13.32;50.91
9462;BME280;4769;42.660;23.262;2023-05-03T05:01:55;94323.25;;;13.46;50.64
9462;BME280;4769;42.660;23.262;2023-05-03T05:04:20;94325.56;;;13.37;50.93
9462;BME280;4769;42.660;23.262;2023-05-03T05:06:46;94326.81;;;13.30;51.50
9462;BME280;4769;42.660;23.262;2023-05-03T05:09:22;94319.13;;;13.28;51.76
9462;BME280;4769;42.660;23.262;2023-05-03T05:11:48;94329.97;;;13.27;52.96
9462;BME280;4769;42.660;23.262;2023-05-03T05:14:14;94333.19;;;13.34;53.94
9462;BME280;4769;42.660;23.262;2023-05-03T05:16:40;94324.47;;;13.33;54.64
9462;BME280;4769;42.660;23.262;2023-05-03T05:19:05;94329.81;;;13.12;55.75
9462;BME280;4769;42.660;23.262;2023-05-03T05:21:31;94340.16;;;13.13;57.42
9462;BME280;4769;42.660;23.262;2023-05-03T05:23:57;94338.88;;;13.16;58.59
9462;BME280;4769;42.660;23.262;2023-05-03T05:26:26;94334.41;;;13.21;58.46
9462;BME280;4769;42.660;23.262;2023-05-03T05:28:52;94345.09;;;13.31;58.82
9462;BME280;4769;42.660;23.262;2023-05-03T05:31:18;94340.69;;;13.42;58.77
9462;BME280;4769;42.660;23.262;2023-05-03T05:33:47;94345.41;;;13.35;59.28
9462;BME280;4769;42.660;23.262;2023-05-03T05:36:13;94353.47;;;13.50;57.61
9462;BME280;4769;42.660;23.262;2023-05-03T05:38:39;94350.22;;;13.43;58.31
9462;BME280;4769;42.660;23.262;2023-05-03T05:41:07;94361.53;;;13.65;59.01
9462;BME280;4769;42.660;23.262;2023-05-03T05:43:38;94343.47;;;13.57;57.52
9462;BME280;4769;42.660;23.262;2023-05-03T05:46:04;94355.53;;;13.43;57.53
9462;BME280;4769;42.660;23.262;2023-05-03T05:48:30;94352.88;;;13.43;58.02
9462;BME280;4769;42.660;23.262;2023-05-03T05:50:56;94357.59;;;13.36;58.32
9462;BME280;4769;42.660;23.262;2023-05-03T05:53:21;94361.47;;;13.55;59.37
9462;BME280;4769;42.660;23.262;2023-05-03T05:55:47;94357.34;;;13.69;59.60
9462;BME280;4769;42.660;23.262;2023-05-03T05:58:13;94356.38;;;13.80;58.51
9462;BME280;4769;42.660;23.262;2023-05-03T06:00:41;94357.69;;;13.82;57.60
9462;BME280;4769;42.660;23.262;2023-05-03T06:03:07;94359.19;;;14.00;57.80
9462;BME280;4769;42.660;23.262;2023-05-03T06:05:33;94369.47;;;13.96;59.86
9462;BME280;4769;42.660;23.262;2023-05-03T06:08:00;94362.44;;;14.12;60.63
9462;BME280;4769;42.660;23.262;2023-05-03T06:10:26;94369.16;;;14.25;59.19
9462;BME280;4769;42.660;23.262;2023-05-03T06:12:52;94357.97;;;14.18;58.38
9462;BME280;4769;42.660;23.262;2023-05-03T06:15:18;94362.41;;;14.07;57.81
9462;BME280;4769;42.660;23.262;2023-05-03T06:17:47;94374.13;;;14.16;57.49
9462;BME280;4769;42.660;23.262;2023-05-03T06:20:13;94361.56;;;14.01;57.75
9462;BME280;4769;42.660;23.262;2023-05-03T06:22:39;94367.03;;;14.22;59.16
9462;BME280;4769;42.660;23.262;2023-05-03T06:25:05;94348.03;;;14.40;57.71
9462;BME280;4769;42.660;23.262;2023-05-03T06:27:31;94354.81;;;13.84;58.26
9462;BME280;4769;42.660;23.262;2023-05-03T06:29:57;94341.84;;;14.24;58.44
9462;BME280;4769;42.660;23.262;2023-05-03T06:32:23;94340.41;;;14.53;57.72
9462;BME280;4769;42.660;23.262;2023-05-03T06:34:51;94340.38;;;14.43;57.48
9462;BME280;4769;42.660;23.262;2023-05-03T06:37:17;94341.72;;;14.51;57.59
9462;BME280;4769;42.660;23.262;2023-05-03T06:39:42;94347.41;;;14.74;58.01
9462;BME280;4769;42.660;23.262;2023-05-03T06:42:09;94337.59;;;14.85;57.52
9462;BME280;4769;42.660;23.262;2023-05-03T06:44:34;94327.19;;;14.68;58.03
9462;BME280;4769;42.660;23.262;2023-05-03T06:47:00;94330.06;;;14.57;57.32
9462;BME280;4769;42.660;23.262;2023-05-03T06:49:26;94325.63;;;14.72;57.28
9462;BME280;4769;42.660;23.262;2023-05-03T06:51:54;94317.94;;;14.81;57.18
9462;BME280;4769;42.660;23.262;2023-05-03T06:54:20;94332.03;;;14.86;57.38
9462;BME280;4769;42.660;23.262;2023-05-03T06:56:46;94320.34;;;14.82;57.25
9462;BME280;4769;42.660;23.262;2023-05-03T06:59:12;94324.97;;;14.45;57.85
9462;BME280;4769;42.660;23.262;2023-05-03T07:01:37;94321.72;;;14.28;57.51
9462;BME280;4769;42.660;23.262;2023-05-03T07:04:04;94304.03;;;14.02;57.78
9462;BME280;4769;42.660;23.262;2023-05-03T07:06:29;94305.13;;;14.06;57.28
9462;BME280;4769;42.660;23.262;2023-05-03T07:08:58;94302.56;;;14.21;57.05
9462;BME280;4769;42.660;23.262;2023-05-03T07:11:23;94315.00;;;14.16;56.58
9462;BME280;4769;42.660;23.262;2023-05-03T07:13:49;94299.56;;;14.07;56.98
9462;BME280;4769;42.660;23.262;2023-05-03T07:16:15;94316.22;;;14.03;56.83
9462;BME280;4769;42.660;23.262;2023-05-03T07:18:41;94315.47;;;14.07;56.80
9462;BME280;4769;42.660;23.262;2023-05-03T07:21:06;94319.41;;;14.00;56.61
9462;BME280;4769;42.660;23.262;2023-05-03T07:23:32;94326.28;;;13.96;57.37
9462;BME280;4769;42.660;23.262;2023-05-03T07:26:00;94331.84;;;14.41;56.12
9462;BME280;4769;42.660;23.262;2023-05-03T07:28:26;94344.13;;;14.52;55.32
9462;BME280;4769;42.660;23.262;2023-05-03T07:30:52;94340.69;;;14.62;55.39
9462;BME280;4769;42.660;23.262;2023-05-03T07:33:18;94345.78;;;14.73;55.35
9462;BME280;4769;42.660;23.262;2023-05-03T07:35:44;94339.66;;;14.58;55.33
9462;BME280;4769;42.660;23.262;2023-05-03T07:38:10;94334.19;;;14.84;54.32
9462;BME280;4769;42.660;23.262;2023-05-03T07:40:36;94341.81;;;14.76;54.99
9462;BME280;4769;42.660;23.262;2023-05-03T07:43:04;94340.63;;;15.18;54.31
9462;BME280;4769;42.660;23.262;2023-05-03T07:45:30;94343.31;;;15.28;53.24
9462;BME280;4769;42.660;23.262;2023-05-03T07:47:56;94349.22;;;15.50;52.81
9462;BME280;4769;42.660;23.262;2023-05-03T07:50:22;94343.38;;;15.53;52.40
9462;BME280;4769;42.660;23.262;2023-05-03T07:52:47;94345.50;;;15.51;52.71
9462;BME280;4769;42.660;23.262;2023-05-03T07:55:16;94350.44;;;15.23;54.45
9462;BME280;4769;42.660;23.262;2023-05-03T07:57:42;94341.53;;;15.89;53.42
9462;BME280;4769;42.660;23.262;2023-05-03T08:00:11;94335.06;;;16.30;52.14
9462;BME280;4769;42.660;23.262;2023-05-03T08:02:37;94330.53;;;16.35;51.29
9462;BME280;4769;42.660;23.262;2023-05-03T08:05:04;94343.91;;;16.10;51.82
9462;BME280;4769;42.660;23.262;2023-05-03T08:07:30;94357.19;;;15.65;53.35
9462;BME280;4769;42.660;23.262;2023-05-03T08:09:56;94348.69;;;15.63;53.65
9462;BME280;4769;42.660;23.262;2023-05-03T08:12:22;94354.56;;;16.00;53.15
9462;BME280;4769;42.660;23.262;2023-05-03T08:14:47;94337.47;;;16.46;52.23
9462;BME280;4769;42.660;23.262;2023-05-03T08:17:16;94344.34;;;16.57;50.75
9462;BME280;4769;42.660;23.262;2023-05-03T08:19:41;94348.34;;;16.60;51.96
9462;BME280;4769;42.660;23.262;2023-05-03T08:22:07;94346.53;;;17.04;50.49
9462;BME280;4769;42.660;23.262;2023-05-03T08:24:33;94353.94;;;17.17;49.73
9462;BME280;4769;42.660;23.262;2023-05-03T08:26:59;94347.81;;;17.21;50.30
9462;BME280;4769;42.660;23.262;2023-05-03T08:29:24;94352.53;;;17.39;50.30
9462;BME280;4769;42.660;23.262;2023-05-03T08:31:50;94344.19;;;17.84;49.34
9462;BME280;4769;42.660;23.262;2023-05-03T08:34:18;94352.84;;;18.05;48.68
9462;BME280;4769;42.660;23.262;2023-05-03T08:36:44;94356.25;;;18.10;48.09
9462;BME280;4769;42.660;23.262;2023-05-03T08:39:10;94348.59;;;18.61;47.18
9462;BME280;4769;42.660;23.262;2023-05-03T08:41:36;94349.34;;;19.32;45.33
9462;BME280;4769;42.660;23.262;2023-05-03T08:44:05;94350.72;;;19.66;44.39
9462;BME280;4769;42.660;23.262;2023-05-03T08:46:32;94349.22;;;19.60;44.23
9462;BME280;4769;42.660;23.262;2023-05-03T08:48:58;94350.53;;;19.44;44.27
9462;BME280;4769;42.660;23.262;2023-05-03T08:51:27;94350.53;;;19.44;44.43
9462;BME280;4769;42.660;23.262;2023-05-03T08:53:52;94350.38;;;19.54;43.41
9462;BME280;4769;42.660;23.262;2023-05-03T08:56:23;94354.47;;;19.28;44.36
9462;BME280;4769;42.660;23.262;2023-05-03T08:58:50;94365.41;;;19.08;44.98
9462;BME280;4769;42.660;23.262;2023-05-03T09:01:16;94366.16;;;18.90;45.22
9462;BME280;4769;42.660;23.262;2023-05-03T09:03:47;94364.94;;;19.01;45.68
9462;BME280;4769;42.660;23.262;2023-05-03T09:06:19;94368.03;;;18.66;46.67
9462;BME280;4769;42.660;23.262;2023-05-03T09:08:47;94355.00;;;18.83;46.30
9462;BME280;4769;42.660;23.262;2023-05-03T09:11:19;94355.34;;;19.24;45.75
9462;BME280;4769;42.660;23.262;2023-05-03T09:13:45;94349.22;;;19.60;45.02
9462;BME280;4769;42.660;23.262;2023-05-03T09:16:21;94339.38;;;20.06;43.70
9462;BME280;4769;42.660;23.262;2023-05-03T09:18:55;94342.91;;;19.51;44.31
9462;BME280;4769;42.660;23.262;2023-05-03T09:21:21;94336.31;;;19.81;43.87
9462;BME280;4769;42.660;23.262;2023-05-03T09:23:50;94332.50;;;20.19;43.07
9462;BME280;4769;42.660;23.262;2023-05-03T09:26:26;94335.97;;;20.51;42.15
9462;BME280;4769;42.660;23.262;2023-05-03T09:28:52;94320.00;;;21.00;41.43
9462;BME280;4769;42.660;23.262;2023-05-03T09:31:18;94321.47;;;21.06;41.00
9462;BME280;4769;42.660;23.262;2023-05-03T09:33:44;94305.88;;;21.22;41.01
9462;BME280;4769;42.660;23.262;2023-05-03T09:36:10;94307.50;;;21.58;40.10
9462;BME280;4769;42.660;23.262;2023-05-03T09:38:36;94306.34;;;21.73;40.06
9462;BME280;4769;42.660;23.262;2023-05-03T09:41:05;94306.28;;;21.51;40.05
9462;BME280;4769;42.660;23.262;2023-05-03T09:43:31;94297.66;;;21.54;40.18
9462;BME280;4769;42.660;23.262;2023-05-03T09:46:07;94297.25;;;22.04;38.97
9462;BME280;4769;42.660;23.262;2023-05-03T09:48:34;94289.44;;;22.69;37.71
9462;BME280;4769;42.660;23.262;2023-05-03T09:51:00;94305.28;;;23.26;37.56
9462;BME280;4769;42.660;23.262;2023-05-03T09:53:27;94304.06;;;23.66;35.93
9462;BME280;4769;42.660;23.262;2023-05-03T09:55:55;94289.34;;;23.73;36.06
9462;BME280;4769;42.660;23.262;2023-05-03T09:58:26;94287.28;;;24.04;34.42
9462;BME280;4769;42.660;23.262;2023-05-03T10:00:52;94286.31;;;23.83;35.06
9462;BME280;4769;42.660;23.262;2023-05-03T10:03:27;94289.63;;;23.62;35.32
9462;BME280;4769;42.660;23.262;2023-05-03T10:05:57;94282.03;;;23.39;36.33
9462;BME280;4769;42.660;23.262;2023-05-03T10:08:39;94280.66;;;23.02;36.97
9462;BME280;4769;42.660;23.262;2023-05-03T10:11:07;94290.03;;;23.13;36.97
9462;BME280;4769;42.660;23.262;2023-05-03T10:13:36;94280.34;;;23.04;37.02
9462;BME280;4769;42.660;23.262;2023-05-03T10:16:05;94280.94;;;23.65;36.02
9462;BME280;4769;42.660;23.262;2023-05-03T10:18:33;94272.69;;;23.88;36.08
9462;BME280;4769;42.660;23.262;2023-05-03T10:21:06;94254.41;;;24.36;35.60
9462;BME280;4769;42.660;23.262;2023-05-03T10:23:33;94254.16;;;24.58;34.45
9462;BME280;4769;42.660;23.262;2023-05-03T10:26:12;94242.38;;;24.25;34.27
9462;BME280;4769;42.660;23.262;2023-05-03T10:28:41;94244.97;;;23.70;35.12
9462;BME280;4769;42.660;23.262;2023-05-03T10:34:18;94248.72;;;23.18;36.60
9462;BME280;4769;42.660;23.262;2023-05-03T10:36:45;94240.50;;;23.06;37.19
9462;BME280;4769;42.660;23.262;2023-05-03T10:39:13;94238.34;;;23.50;36.80
9462;BME280;4769;42.660;23.262;2023-05-03T10:41:39;94226.47;;;23.68;36.32
9462;BME280;4769;42.660;23.262;2023-05-03T10:44:24;94232.63;;;23.43;36.79
9462;BME280;4769;42.660;23.262;2023-05-03T10:46:52;94235.19;;;23.31;37.42
9462;BME280;4769;42.660;23.262;2023-05-03T10:49:19;94242.75;;;22.65;38.72
9462;BME280;4769;42.660;23.262;2023-05-03T10:51:45;94227.38;;;22.48;39.02
9462;BME280;4769;42.660;23.262;2023-05-03T10:54:11;94234.72;;;22.34;39.19
9462;BME280;4769;42.660;23.262;2023-05-03T10:56:47;94232.22;;;21.85;40.06
9462;BME280;4769;42.660;23.262;2023-05-03T10:59:15;94237.59;;;21.63;41.05
9462;BME280;4769;42.660;23.262;2023-05-03T11:01:43;94247.44;;;21.32;41.47
9462;BME280;4769;42.660;23.262;2023-05-03T11:04:11;94241.38;;;21.40;43.14
9462;BME280;4769;42.660;23.262;2023-05-03T11:06:39;94232.41;;;21.09;42.64
9462;BME280;4769;42.660;23.262;2023-05-03T11:09:06;94234.28;;;21.09;43.00
9462;BME280;4769;42.660;23.262;2023-05-03T11:11:33;94234.69;;;21.16;42.92
9462;BME280;4769;42.660;23.262;2023-05-03T11:13:59;94237.94;;;21.26;43.12
9462;BME280;4769;42.660;23.262;2023-05-03T11:16:28;94219.75;;;21.23;43.48
9462;BME280;4769;42.660;23.262;2023-05-03T11:18:54;94225.03;;;21.50;42.83
9462;BME280;4769;42.660;23.262;2023-05-03T11:21:20;94222.38;;;21.72;42.31
9462;BME280;4769;42.660;23.262;2023-05-03T11:23:47;94229.97;;;22.01;41.70
9462;BME280;4769;42.660;23.262;2023-05-03T11:26:13;94219.41;;;21.60;42.24
9462;BME280;4769;42.660;23.262;2023-05-03T11:28:39;94208.28;;;21.89;41.54
9462;BME280;4769;42.660;23.262;2023-05-03T11:31:05;94208.09;;;21.63;41.44
9462;BME280;4769;42.660;23.262;2023-05-03T11:33:35;94213.22;;;21.73;41.26
9462;BME280;4769;42.660;23.262;2023-05-03T11:36:02;94202.66;;;21.77;40.80
9462;BME280;4769;42.660;23.262;2023-05-03T11:38:29;94211.00;;;21.31;41.95
9462;BME280;4769;42.660;23.262;2023-05-03T11:40:55;94208.03;;;21.19;41.97
9462;BME280;4769;42.660;23.262;2023-05-03T11:43:21;94202.16;;;20.95;42.86
9462;BME280;4769;42.660;23.262;2023-05-03T11:45:47;94200.06;;;21.50;42.34
9462;BME280;4769;42.660;23.262;2023-05-03T11:48:15;94200.44;;;22.40;40.69
9462;BME280;4769;42.660;23.262;2023-05-03T11:50:48;94173.25;;;22.41;40.25
9462;BME280;4769;42.660;23.262;2023-05-03T11:53:15;94175.78;;;23.11;39.06
9462;BME280;4769;42.660;23.262;2023-05-03T11:55:42;94178.69;;;23.31;38.55
9462;BME280;4769;42.660;23.262;2023-05-03T11:58:11;94180.25;;;23.32;38.95
9462;BME280;4769;42.660;23.262;2023-05-03T12:00:36;94168.34;;;22.99;38.66
9462;BME280;4769;42.660;23.262;2023-05-03T12:03:02;94149.88;;;23.23;38.13
9462;BME280;4769;42.660;23.262;2023-05-03T12:05:28;94146.31;;;24.58;35.99
9462;BME280;4769;42.660;23.262;2023-05-03T12:07:56;94148.91;;;25.45;35.22
9462;BME280;4769;42.660;23.262;2023-05-03T12:10:30;94158.38;;;24.60;36.03
9462;BME280;4769;42.660;23.262;2023-05-03T12:12:57;94153.53;;;24.08;37.00
9462;BME280;4769;42.660;23.262;2023-05-03T12:15:27;94152.81;;;22.96;39.53
9462;BME280;4769;42.660;23.262;2023-05-03T12:17:55;94154.38;;;22.72;40.71
9462;BME280;4769;42.660;23.262;2023-05-03T12:20:22;94142.03;;;22.62;40.68
9462;BME280;4769;42.660;23.262;2023-05-03T12:22:48;94146.50;;;22.84;40.71
9462;BME280;4769;42.660;23.262;2023-05-03T12:25:17;94132.88;;;22.16;42.00
9462;BME280;4769;42.660;23.262;2023-05-03T12:27:43;94143.44;;;21.73;43.14
9462;BME280;4769;42.660;23.262;2023-05-03T12:30:09;94140.31;;;21.58;43.95
9462;BME280;4769;42.660;23.262;2023-05-03T12:32:35;94139.91;;;20.98;45.11
9462;BME280;4769;42.660;23.262;2023-05-03T12:35:01;94140.03;;;20.80;46.10
9462;BME280;4769;42.660;23.262;2023-05-03T12:37:27;94148.22;;;20.48;46.53
9462;BME280;4769;42.660;23.262;2023-05-03T12:39:53;94147.06;;;20.13;47.59
9462;BME280;4769;42.660;23.262;2023-05-03T12:42:21;94144.94;;;19.70;48.79
9462;BME280;4769;42.660;23.262;2023-05-03T12:44:47;94148.81;;;19.32;49.99
9462;BME280;4769;42.660;23.262;2023-05-03T12:47:13;94156.72;;;18.86;51.32
9462;BME280;4769;42.660;23.262;2023-05-03T12:49:39;94142.50;;;18.72;52.48
9462;BME280;4769;42.660;23.262;2023-05-03T12:52:04;94142.28;;;18.69;52.85
9462;BME280;4769;42.660;23.262;2023-05-03T12:54:30;94142.66;;;18.62;53.13
9462;BME280;4769;42.660;23.262;2023-05-03T12:56:58;94147.81;;;18.35;54.24
9462;BME280;4769;42.660;23.262;2023-05-03T12:59:26;94138.13;;;18.21;54.31
9462;BME280;4769;42.660;23.262;2023-05-03T13:01:52;94141.69;;;18.11;54.49
9462;BME280;4769;42.660;23.262;2023-05-03T13:04:18;94139.41;;;17.81;56.00
9462;BME280;4769;42.660;23.262;2023-05-03T13:06:44;94148.97;;;17.82;57.48
9462;BME280;4769;42.660;23.262;2023-05-03T13:09:09;94133.16;;;17.62;60.26
9462;BME280;4769;42.660;23.262;2023-05-03T13:11:35;94142.75;;;17.40;62.28